Time;durP1;ratioP1;P1;durP2;ratioP2;P2;SDS_P1;SDS_P2;PMS_P1;PMS_P2;Temp;Humidity;BMP_temperature;BMP_pressure;BME280_temperature;BME280_humidity;BME280_pressure;Samples;Min_cycle;Max_cycle;Signal;HPM_P1;HPM_P2
2021/05/05 00:00:42;;;;;;;4.53;1.85;;;7.30;99.90;;;;;;4946357;29;20063;-30
2021/05/05 00:03:07;;;;;;;4.75;2.00;;;7.30;99.90;;;;;;4947815;28;20053;-27
2021/05/05 00:05:33;;;;;;;4.63;1.90;;;7.40;99.90;;;;;;4948319;28;20027;-27
2021/05/05 00:07:59;;;;;;;3.90;1.50;;;7.40;99.90;;;;;;4947539;28;20110;-27
2021/05/05 00:10:28;;;;;;;6.47;1.88;;;7.40;99.90;;;;;;4948196;28;20062;-27
2021/05/05 00:12:53;;;;;;;4.35;1.50;;;7.40;99.80;;;;;;4947783;28;20023;-27
2021/05/05 00:15:22;;;;;;;7.93;1.60;;;7.50;99.80;;;;;;4948059;29;20041;-27
2021/05/05 00:17:48;;;;;;;6.22;1.88;;;7.50;99.70;;;;;;4947883;28;20039;-27
2021/05/05 00:20:15;;;;;;;4.35;1.60;;;7.50;99.60;;;;;;4947475;28;20438;-27
2021/05/05 00:22:41;;;;;;;9.98;1.80;;;7.50;99.50;;;;;;4947284;29;20386;-27
2021/05/05 00:25:08;;;;;;;7.20;2.10;;;7.50;99.40;;;;;;4947920;29;20021;-27
2021/05/05 00:27:34;;;;;;;5.00;1.65;;;7.50;99.50;;;;;;4947748;28;20031;-27
2021/05/05 00:29:59;;;;;;;5.78;1.92;;;7.50;99.50;;;;;;4947376;29;20031;-27
2021/05/05 00:32:25;;;;;;;4.78;1.77;;;7.50;99.60;;;;;;4947884;28;20023;-27
2021/05/05 00:34:53;;;;;;;7.80;2.10;;;7.50;99.50;;;;;;4947695;28;20039;-27
2021/05/05 00:37:19;;;;;;;9.35;1.73;;;7.50;99.60;;;;;;4947627;29;20028;-27
2021/05/05 00:39:45;;;;;;;8.25;2.05;;;7.50;99.50;;;;;;4947705;29;20027;-28
2021/05/05 00:42:10;;;;;;;6.72;2.15;;;7.50;99.50;;;;;;4947771;29;20059;-34
2021/05/05 00:44:37;;;;;;;6.72;1.80;;;7.50;99.60;;;;;;4946993;28;20514;-28
2021/05/05 00:47:03;;;;;;;6.35;1.77;;;7.50;99.50;;;;;;4947609;29;20031;-27
2021/05/05 00:49:28;;;;;;;6.95;2.20;;;7.50;99.50;;;;;;4947458;29;20041;-27
2021/05/05 00:51:54;;;;;;;5.45;1.83;;;7.50;99.50;;;;;;4946616;29;20027;-27
2021/05/05 00:54:20;;;;;;;9.75;2.17;;;7.40;99.50;;;;;;4947767;29;20407;-27
2021/05/05 00:56:46;;;;;;;6.28;1.92;;;7.40;99.50;;;;;;4947146;28;20043;-25
2021/05/05 00:59:12;;;;;;;8.60;2.20;;;7.40;99.50;;;;;;4946239;29;20042;-27
2021/05/05 01:01:40;;;;;;;8.20;3.00;;;7.30;99.50;;;;;;4947425;28;20479;-26
2021/05/05 01:04:06;;;;;;;6.80;2.40;;;7.30;99.50;;;;;;4946675;29;20047;-26
2021/05/05 01:06:32;;;;;;;8.18;2.22;;;7.30;99.50;;;;;;4946942;28;20035;-26
2021/05/05 01:08:58;;;;;;;6.28;2.58;;;7.30;99.50;;;;;;4946882;29;20035;-26
2021/05/05 01:11:24;;;;;;;7.28;2.50;;;7.30;99.70;;;;;;4947063;28;20039;-27
2021/05/05 01:13:50;;;;;;;8.02;2.60;;;7.30;99.50;;;;;;4946604;29;20037;-26
2021/05/05 01:16:15;;;;;;;6.60;2.50;;;7.30;99.30;;;;;;4947023;29;20050;-26
2021/05/05 01:18:42;;;;;;;5.30;2.72;;;7.30;99.30;;;;;;4946271;28;20043;-26
2021/05/05 01:21:08;;;;;;;6.05;3.08;;;7.30;99.30;;;;;;4946828;28;20501;-26
2021/05/05 01:23:34;;;;;;;7.72;2.85;;;7.30;99.30;;;;;;4947668;28;20087;-27
2021/05/05 01:26:00;;;;;;;11.18;2.83;;;7.30;99.60;;;;;;4946227;29;20031;-27
2021/05/05 01:28:26;;;;;;;6.70;2.45;;;7.30;99.40;;;;;;4947513;28;20145;-27
2021/05/05 01:30:52;;;;;;;6.82;2.70;;;7.30;99.50;;;;;;4946562;28;20062;-27
2021/05/05 01:33:18;;;;;;;8.85;2.92;;;7.30;99.50;;;;;;4946216;28;20900;-26
2021/05/05 01:35:46;;;;;;;6.15;2.17;;;7.30;99.70;;;;;;4946553;28;20043;-27
2021/05/05 01:38:13;;;;;;;7.10;2.08;;;7.20;99.70;;;;;;4947021;28;20020;-27
2021/05/05 01:40:40;;;;;;;8.13;2.63;;;7.20;99.90;;;;;;4949029;28;20074;-27
2021/05/05 01:43:06;;;;;;;3.88;1.90;;;7.10;99.90;;;;;;4950567;29;20080;-27
2021/05/05 01:45:32;;;;;;;8.60;1.98;;;7.00;99.90;;;;;;4950578;28;20102;-27
2021/05/05 01:48:02;;;;;;;5.32;1.80;;;6.90;99.90;;;;;;4949594;29;20023;-27
2021/05/05 01:50:27;;;;;;;6.97;2.42;;;6.80;99.90;;;;;;4945570;29;20036;-27
2021/05/05 01:52:54;;;;;;;3.97;2.10;;;6.80;99.90;;;;;;4943788;29;20035;-27
2021/05/05 01:55:19;;;;;;;5.35;1.83;;;6.70;99.90;;;;;;4949963;28;20387;-27
2021/05/05 01:57:46;;;;;;;6.57;1.50;;;6.60;99.90;;;;;;4949549;29;20055;-27
2021/05/05 02:00:24;;;;;;;9.10;1.92;;;6.50;99.90;;;;;;4950239;28;20027;-27
2021/05/05 02:02:50;;;;;;;6.47;1.92;;;6.40;99.90;;;;;;4931352;29;20107;-27
2021/05/05 02:05:16;;;;;;;8.43;2.78;;;6.40;99.90;;;;;;4934607;29;20133;-27
2021/05/05 02:07:42;;;;;;;10.18;2.15;;;6.30;99.90;;;;;;4950241;29;20034;-27
2021/05/05 02:10:10;;;;;;;6.88;1.77;;;6.30;99.90;;;;;;4949597;29;20042;-27
2021/05/05 02:12:36;;;;;;;6.32;1.75;;;6.30;99.90;;;;;;4949536;28;20031;-27
2021/05/05 02:15:04;;;;;;;8.45;2.38;;;6.20;99.90;;;;;;4949989;29;20016;-27
2021/05/05 02:17:30;;;;;;;7.38;2.03;;;6.20;99.90;;;;;;4950329;28;20043;-27
2021/05/05 02:19:56;;;;;;;8.70;2.72;;;6.10;99.90;;;;;;4949753;28;20106;-27
2021/05/05 02:22:21;;;;;;;14.23;3.47;;;6.10;99.90;;;;;;4949590;28;20031;-27
2021/05/05 02:24:47;;;;;;;8.75;2.35;;;6.20;99.90;;;;;;4949954;28;20126;-27
2021/05/05 02:27:12;;;;;;;8.00;1.80;;;6.20;99.90;;;;;;4949447;28;20035;-27
2021/05/05 02:29:38;;;;;;;6.05;1.90;;;6.10;99.90;;;;;;4949742;28;20119;-27
2021/05/05 02:32:11;;;;;;;8.60;1.88;;;6.10;99.90;;;;;;4949979;29;20027;-26
2021/05/05 02:34:38;;;;;;;11.63;2.30;;;6.10;99.90;;;;;;4949505;28;20110;-26
2021/05/05 02:37:06;;;;;;;9.23;2.03;;;6.10;99.90;;;;;;4948979;29;20046;-26
2021/05/05 02:39:31;;;;;;;11.30;2.20;;;6.00;99.90;;;;;;4950334;28;20038;-27
2021/05/05 02:41:58;;;;;;;6.95;1.60;;;6.00;99.90;;;;;;4948459;29;20199;-26
2021/05/05 02:44:23;;;;;;;7.15;2.22;;;6.00;99.90;;;;;;4949724;28;20146;-27
2021/05/05 02:46:49;;;;;;;5.30;1.90;;;6.00;99.90;;;;;;4949640;29;20042;-27
2021/05/05 02:49:14;;;;;;;11.90;2.72;;;6.10;99.90;;;;;;4949095;29;20023;-27
2021/05/05 02:51:40;;;;;;;9.27;2.70;;;6.10;99.90;;;;;;4948646;28;20059;-26
2021/05/05 02:54:06;;;;;;;8.95;2.65;;;6.10;99.90;;;;;;4949582;29;20027;-27
2021/05/05 02:56:31;;;;;;;6.30;2.60;;;6.10;99.90;;;;;;4949315;29;20125;-27
2021/05/05 02:58:57;;;;;;;9.15;2.92;;;6.10;99.90;;;;;;4948020;29;20026;-27
2021/05/05 03:01:23;;;;;;;14.10;3.50;;;6.20;99.90;;;;;;4950113;28;20031;-27
2021/05/05 03:03:48;;;;;;;9.07;2.60;;;6.20;99.90;;;;;;4949116;28;20023;-27
2021/05/05 03:06:14;;;;;;;6.60;2.95;;;6.20;99.90;;;;;;4948692;28;20236;-27
2021/05/05 03:08:39;;;;;;;12.77;3.70;;;6.20;99.90;;;;;;4949180;28;20034;-27
2021/05/05 03:11:05;;;;;;;6.22;2.65;;;6.20;99.90;;;;;;4948499;29;20038;-27
2021/05/05 03:13:31;;;;;;;13.95;2.90;;;6.30;99.90;;;;;;4949087;28;20051;-28
2021/05/05 03:15:57;;;;;;;10.77;3.00;;;6.30;99.90;;;;;;4948730;28;20479;-26
2021/05/05 03:18:23;;;;;;;9.95;2.70;;;6.30;99.90;;;;;;4949158;28;20069;-34
2021/05/05 03:20:48;;;;;;;10.02;2.95;;;6.30;99.90;;;;;;4949014;29;20031;-26
2021/05/05 03:23:14;;;;;;;9.93;2.63;;;6.30;99.90;;;;;;4948389;28;20463;-27
2021/05/05 03:25:40;;;;;;;7.47;2.63;;;6.30;99.90;;;;;;4948758;29;20021;-26
2021/05/05 03:28:07;;;;;;;11.50;3.22;;;6.30;99.90;;;;;;4948586;28;20037;-27
2021/05/05 03:30:33;;;;;;;9.18;3.58;;;6.30;99.90;;;;;;4948925;28;20167;-33
2021/05/05 03:32:59;;;;;;;9.73;3.35;;;6.30;99.90;;;;;;4947912;28;20035;-27
2021/05/05 03:35:24;;;;;;;11.70;3.63;;;6.30;99.90;;;;;;4948746;28;20024;-27
2021/05/05 03:37:50;;;;;;;8.13;3.72;;;6.30;99.90;;;;;;4948939;28;20050;-33
2021/05/05 03:40:15;;;;;;;14.32;4.55;;;6.30;99.90;;;;;;4947804;28;20046;-27
2021/05/05 03:42:41;;;;;;;10.43;4.18;;;6.30;99.90;;;;;;4948562;28;20489;-27
2021/05/05 03:45:08;;;;;;;11.88;5.55;;;6.30;99.90;;;;;;4948538;28;20042;-27
2021/05/05 03:47:39;;;;;;;11.73;5.00;;;6.30;99.90;;;;;;4948243;28;20518;-26
2021/05/05 03:50:06;;;;;;;16.70;5.00;;;6.30;99.90;;;;;;4948596;28;20055;-27
2021/05/05 03:52:32;;;;;;;15.80;5.03;;;6.20;99.90;;;;;;4948435;29;20114;-28
2021/05/05 03:55:00;;;;;;;11.63;5.03;;;6.20;99.90;;;;;;4947585;28;20754;-28
2021/05/05 03:57:25;;;;;;;8.38;4.72;;;6.20;99.90;;;;;;4948598;29;20042;-28
2021/05/05 03:59:51;;;;;;;14.43;4.75;;;6.20;99.90;;;;;;4948319;28;20024;-28
2021/05/05 04:02:17;;;;;;;10.77;5.00;;;6.10;99.90;;;;;;4947406;28;20071;-28
2021/05/05 04:04:42;;;;;;;12.82;4.43;;;6.10;99.90;;;;;;4947955;28;20086;-28
2021/05/05 04:07:08;;;;;;;16.38;5.07;;;6.20;99.90;;;;;;4946893;29;20524;-27
2021/05/05 04:09:35;;;;;;;9.57;4.55;;;6.20;99.90;;;;;;4947900;28;20041;-27
2021/05/05 04:12:02;;;;;;;13.00;4.38;;;6.20;99.90;;;;;;4947941;28;20049;-32
2021/05/05 04:14:27;;;;;;;13.65;4.43;;;6.20;99.90;;;;;;4948241;28;20043;-27
2021/05/05 04:16:53;;;;;;;9.63;4.13;;;6.20;99.90;;;;;;4947459;29;20031;-27
2021/05/05 04:19:18;;;;;;;9.38;3.40;;;6.30;99.90;;;;;;4947902;29;20066;-26
2021/05/05 04:21:44;;;;;;;17.63;4.25;;;6.30;99.90;;;;;;4947697;29;20030;-27
2021/05/05 04:24:10;;;;;;;10.13;3.38;;;6.20;99.90;;;;;;4948066;29;20031;-27
2021/05/05 04:26:36;;;;;;;11.48;3.47;;;6.20;99.90;;;;;;4947670;29;20130;-27
2021/05/05 04:29:02;;;;;;;9.93;3.13;;;6.20;99.90;;;;;;4948017;29;20110;-27
2021/05/05 04:31:29;;;;;;;13.35;3.35;;;6.20;99.90;;;;;;4948552;29;20089;-26
2021/05/05 04:33:55;;;;;;;14.10;3.47;;;6.20;99.90;;;;;;4947881;28;20043;-27
2021/05/05 04:36:20;;;;;;;12.18;3.50;;;6.20;99.90;;;;;;4947248;29;20450;-27
2021/05/05 04:38:46;;;;;;;11.90;3.65;;;6.20;99.90;;;;;;4947884;29;20050;-27
2021/05/05 04:41:12;;;;;;;8.77;3.15;;;6.20;99.90;;;;;;4947582;28;20473;-27
2021/05/05 04:43:37;;;;;;;12.45;3.40;;;6.30;99.90;;;;;;4946785;29;20074;-27
2021/05/05 04:46:03;;;;;;;11.70;3.30;;;6.30;99.90;;;;;;4947662;29;20019;-27
2021/05/05 04:48:29;;;;;;;14.07;3.17;;;6.30;99.90;;;;;;4947405;28;20147;-27
2021/05/05 04:50:54;;;;;;;9.63;3.22;;;6.40;99.90;;;;;;4946622;29;20110;-27
2021/05/05 04:53:20;;;;;;;8.63;2.95;;;6.40;99.90;;;;;;4947815;28;20037;-27
2021/05/05 04:55:45;;;;;;;7.88;3.83;;;6.50;99.90;;;;;;4947579;28;20082;-27
2021/05/05 04:58:14;;;;;;;7.85;3.20;;;6.50;99.90;;;;;;4946957;28;20451;-27
2021/05/05 05:00:40;;;;;;;8.60;3.45;;;6.60;99.90;;;;;;4947703;28;20034;-27
2021/05/05 05:03:08;;;;;;;10.02;3.40;;;6.50;99.90;;;;;;4946935;28;20042;-27
2021/05/05 05:05:33;;;;;;;7.22;3.28;;;6.60;99.90;;;;;;4947067;28;20063;-26
2021/05/05 05:07:59;;;;;;;6.22;2.90;;;6.50;99.90;;;;;;4947402;28;20209;-27
2021/05/05 05:10:25;;;;;;;7.25;2.78;;;6.50;99.90;;;;;;4947461;28;20494;-28
2021/05/05 05:12:50;;;;;;;7.32;3.55;;;6.50;99.90;;;;;;4946523;28;20035;-27
2021/05/05 05:15:16;;;;;;;10.75;3.50;;;6.50;99.90;;;;;;4945795;29;20063;-27
2021/05/05 05:17:41;;;;;;;15.93;5.07;;;6.50;99.90;;;;;;4946521;29;20047;-27
2021/05/05 05:20:09;;;;;;;8.23;3.33;;;6.40;99.90;;;;;;4946877;28;20028;-26
2021/05/05 05:22:35;;;;;;;10.75;3.60;;;6.40;99.90;;;;;;4947302;29;20114;-26
2021/05/05 05:25:09;;;;;;;9.45;3.35;;;6.40;99.90;;;;;;4946284;28;20331;-27
2021/05/05 05:27:35;;;;;;;6.13;3.08;;;6.40;99.90;;;;;;4946662;29;20023;-26
2021/05/05 05:30:00;;;;;;;6.80;3.40;;;6.40;99.90;;;;;;4946876;28;20035;-26
2021/05/05 05:32:26;;;;;;;8.55;3.78;;;6.40;99.90;;;;;;4946711;29;20035;-27
2021/05/05 05:34:51;;;;;;;8.57;3.55;;;6.40;99.90;;;;;;4946612;28;20027;-27
2021/05/05 05:37:17;;;;;;;10.25;3.10;;;6.40;99.90;;;;;;4946881;29;20039;-26
2021/05/05 05:39:43;;;;;;;8.20;3.40;;;6.40;99.90;;;;;;4946539;29;20340;-27
2021/05/05 05:42:08;;;;;;;8.73;3.60;;;6.30;99.90;;;;;;4946208;29;20471;-26
2021/05/05 05:44:34;;;;;;;11.20;3.03;;;6.30;99.90;;;;;;4947000;28;20023;-27
2021/05/05 05:47:00;;;;;;;8.23;3.08;;;6.30;99.90;;;;;;4946688;29;20019;-27
2021/05/05 05:49:26;;;;;;;8.25;4.03;;;6.30;99.90;;;;;;4937140;29;20115;-26
2021/05/05 05:51:51;;;;;;;7.40;3.20;;;6.30;99.90;;;;;;4943331;28;20039;-28
2021/05/05 05:54:17;;;;;;;7.13;2.92;;;6.30;99.90;;;;;;4944041;28;20028;-27
2021/05/05 05:56:43;;;;;;;7.22;3.05;;;6.40;99.90;;;;;;4946328;29;20043;-26
2021/05/05 05:59:08;;;;;;;9.18;3.20;;;6.40;99.90;;;;;;4945702;28;20093;-27
2021/05/05 06:01:34;;;;;;;7.65;2.65;;;6.50;99.90;;;;;;4945825;29;20038;-28
2021/05/05 06:04:00;;;;;;;6.63;2.70;;;6.50;99.90;;;;;;4942415;28;20031;-28
2021/05/05 06:06:25;;;;;;;9.15;3.10;;;6.60;99.90;;;;;;4943923;29;20498;-28
2021/05/05 06:08:51;;;;;;;7.20;3.03;;;6.70;99.90;;;;;;4941821;29;20335;-27
2021/05/05 06:11:16;;;;;;;5.43;2.67;;;6.80;99.90;;;;;;4946264;28;20447;-28
2021/05/05 06:13:42;;;;;;;8.27;2.97;;;7.00;99.90;;;;;;4945067;29;20023;-28
2021/05/05 06:16:08;;;;;;;8.38;3.15;;;7.00;99.90;;;;;;4945477;28;20039;-28
2021/05/05 06:18:33;;;;;;;7.70;2.50;;;7.10;99.90;;;;;;4947067;29;20531;-27
2021/05/05 06:21:00;;;;;;;9.07;2.65;;;7.10;99.90;;;;;;4945178;29;20027;-28
2021/05/05 06:23:25;;;;;;;6.25;2.70;;;7.10;99.90;;;;;;4945566;28;20079;-26
2021/05/05 06:25:51;;;;;;;7.80;2.40;;;7.10;99.90;;;;;;4946925;28;20066;-25
2021/05/05 06:28:16;;;;;;;7.28;2.67;;;7.10;99.90;;;;;;4949648;29;20202;-26
2021/05/05 06:30:42;;;;;;;6.20;2.03;;;7.10;99.90;;;;;;4950362;29;20445;-27
2021/05/05 06:33:08;;;;;;;10.48;2.42;;;7.00;99.90;;;;;;4949756;28;20046;-27
2021/05/05 06:35:33;;;;;;;8.00;2.42;;;7.10;99.90;;;;;;4949129;28;20440;-27
2021/05/05 06:37:59;;;;;;;7.88;2.30;;;7.10;99.90;;;;;;4949173;29;20121;-26
2021/05/05 06:40:24;;;;;;;11.85;2.88;;;7.10;99.90;;;;;;4950024;28;20166;-25
2021/05/05 06:42:50;;;;;;;6.55;2.08;;;7.10;99.90;;;;;;4948890;29;20059;-27
2021/05/05 06:45:16;;;;;;;7.72;2.78;;;7.20;99.90;;;;;;4949737;28;20038;-27
2021/05/05 06:47:42;;;;;;;8.70;2.47;;;7.40;99.90;;;;;;4949609;28;20023;-27
2021/05/05 06:50:10;;;;;;;8.07;2.53;;;7.50;99.90;;;;;;4949087;29;20794;-32
2021/05/05 06:52:36;;;;;;;11.80;3.25;;;7.60;99.80;;;;;;4949567;28;20336;-26
2021/05/05 06:55:02;;;;;;;10.93;2.63;;;7.60;99.20;;;;;;4949530;29;20050;-27
2021/05/05 06:57:28;;;;;;;5.63;1.85;;;7.70;99.10;;;;;;4949941;29;20216;-27
2021/05/05 06:59:59;;;;;;;7.78;2.45;;;7.70;98.80;;;;;;4949184;29;20450;-28
2021/05/05 07:02:27;;;;;;;7.68;2.20;;;7.60;98.60;;;;;;4949196;29;20118;-27
2021/05/05 07:04:53;;;;;;;8.05;2.20;;;7.50;98.50;;;;;;4948947;29;20035;-27
2021/05/05 07:07:18;;;;;;;6.50;2.08;;;7.40;98.80;;;;;;4949230;28;20058;-27
2021/05/05 07:09:44;;;;;;;10.05;2.20;;;7.40;98.90;;;;;;4949516;29;20118;-27
2021/05/05 07:12:09;;;;;;;7.22;2.22;;;7.50;99.10;;;;;;4948933;29;20027;-27
2021/05/05 07:14:35;;;;;;;5.75;1.83;;;7.50;98.70;;;;;;4948949;29;20015;-27
2021/05/05 07:17:00;;;;;;;5.78;2.05;;;7.50;98.50;;;;;;4949223;28;20047;-27
2021/05/05 07:19:26;;;;;;;6.53;2.40;;;7.70;98.90;;;;;;4948545;29;20110;-27
2021/05/05 07:21:52;;;;;;;10.55;2.40;;;7.80;98.70;;;;;;4947513;29;20024;-28
2021/05/05 07:24:17;;;;;;;8.07;2.13;;;7.80;98.30;;;;;;4948314;29;20506;-26
2021/05/05 07:26:43;;;;;;;7.35;2.08;;;7.80;98.20;;;;;;4948571;29;20031;-27
2021/05/05 07:29:08;;;;;;;6.40;2.40;;;7.80;98.00;;;;;;4948779;28;20333;-27
2021/05/05 07:31:37;;;;;;;4.93;1.73;;;7.80;97.60;;;;;;4948446;29;20122;-27
2021/05/05 07:34:03;;;;;;;7.00;2.15;;;7.80;98.10;;;;;;4948796;28;20031;-27
2021/05/05 07:36:29;;;;;;;8.00;1.92;;;7.90;97.50;;;;;;4946612;28;20094;-37
2021/05/05 07:42:15;;;;;;;9.70;1.70;;;8.00;97.20;;;;;;4948588;29;20581;-27
2021/05/05 07:47:17;;;;;;;7.25;2.08;;;8.00;97.40;;;;;;4946657;29;20112;-27
2021/05/05 07:49:54;;;;;;;8.68;2.17;;;8.20;97.10;;;;;;4946471;28;20158;-27
2021/05/05 07:52:20;;;;;;;11.10;3.33;;;8.30;96.70;;;;;;4948212;28;20429;-26
2021/05/05 07:54:47;;;;;;;12.00;2.33;;;8.40;96.30;;;;;;4954118;28;20079;-26
2021/05/05 07:57:13;;;;;;;10.23;2.20;;;8.50;96.40;;;;;;4962155;28;20097;-26
2021/05/05 07:59:38;;;;;;;9.98;2.40;;;8.60;96.20;;;;;;4937056;29;20475;-27
2021/05/05 08:02:04;;;;;;;6.97;2.20;;;8.60;96.40;;;;;;4948165;28;20031;-27
2021/05/05 08:04:31;;;;;;;9.25;2.25;;;8.80;95.90;;;;;;4947855;28;20067;-27
2021/05/05 08:06:56;;;;;;;8.98;2.30;;;8.90;95.90;;;;;;4947487;28;20039;-28
2021/05/05 08:09:24;;;;;;;10.00;2.33;;;8.80;96.40;;;;;;4948573;28;20533;-27
2021/05/05 08:11:49;;;;;;;9.50;2.00;;;8.70;97.20;;;;;;4948070;28;20061;-27
2021/05/05 08:14:17;;;;;;;7.07;1.60;;;8.30;98.10;;;;;;4947369;28;20751;-28
2021/05/05 08:16:42;;;;;;;7.75;2.00;;;8.00;98.80;;;;;;4946765;28;20046;-28
2021/05/05 08:19:08;;;;;;;9.68;1.95;;;7.70;99.90;;;;;;4947323;28;20027;-28
2021/05/05 08:21:33;;;;;;;5.13;1.48;;;7.40;99.90;;;;;;4947282;29;20499;-27
2021/05/05 08:23:59;;;;;;;5.22;1.50;;;7.20;99.90;;;;;;4947499;29;20011;-28
2021/05/05 08:26:27;;;;;;;3.83;1.40;;;7.10;99.90;;;;;;4948399;28;20039;-28
2021/05/05 08:28:52;;;;;;;7.88;2.00;;;7.00;99.90;;;;;;4946668;29;20030;-28
2021/05/05 08:31:18;;;;;;;7.13;2.00;;;6.90;99.90;;;;;;4947677;28;20027;-27
2021/05/05 08:33:44;;;;;;;6.90;2.22;;;6.90;99.90;;;;;;4947530;29;20028;-27
2021/05/05 08:36:09;;;;;;;4.43;1.70;;;6.80;99.90;;;;;;4946691;28;20106;-28
2021/05/05 08:38:35;;;;;;;9.75;2.28;;;6.90;99.90;;;;;;4947504;29;20058;-27
2021/05/05 08:41:01;;;;;;;8.35;2.10;;;7.10;99.90;;;;;;4947273;29;20059;-28
2021/05/05 08:43:31;;;;;;;11.43;1.92;;;7.20;99.90;;;;;;4946733;29;20129;-27
2021/05/05 08:45:58;;;;;;;5.78;1.95;;;7.30;99.90;;;;;;4946653;29;20119;-28
2021/05/05 08:48:24;;;;;;;7.00;2.20;;;7.30;99.90;;;;;;4947248;28;20028;-28
2021/05/05 08:50:56;;;;;;;9.23;1.90;;;7.40;99.90;;;;;;4946728;28;20036;-27
2021/05/05 08:53:21;;;;;;;5.85;1.95;;;7.60;99.90;;;;;;4947210;29;20149;-28
2021/05/05 08:55:47;;;;;;;8.40;2.00;;;7.70;99.90;;;;;;4946605;29;20584;-27
2021/05/05 08:58:12;;;;;;;7.30;2.20;;;7.90;99.90;;;;;;4947459;29;20125;-27
2021/05/05 09:00:38;;;;;;;7.15;1.88;;;8.00;99.30;;;;;;4947070;29;20031;-29
2021/05/05 09:03:07;;;;;;;9.80;2.10;;;8.10;99.50;;;;;;4928184;29;20173;-28
2021/05/05 09:06:05;;;;;;;4.35;1.75;;;8.30;98.80;;;;;;4941485;29;20515;-27
2021/05/05 09:08:32;;;;;;;8.50;2.08;;;8.30;98.80;;;;;;4926986;29;20063;-28
2021/05/05 09:11:07;;;;;;;7.55;2.00;;;8.20;98.90;;;;;;4943349;29;20069;-30
2021/05/05 09:13:42;;;;;;;7.53;1.90;;;8.10;99.20;;;;;;4928460;29;20229;-29
2021/05/05 09:16:09;;;;;;;10.05;2.17;;;7.90;99.60;;;;;;4946297;29;20039;-28
2021/05/05 09:18:54;;;;;;;13.63;2.83;;;7.80;99.90;;;;;;4928226;29;20062;-29
2021/05/05 09:21:24;;;;;;;6.47;2.50;;;7.80;99.90;;;;;;4944173;29;20391;-28
2021/05/05 09:23:50;;;;;;;9.15;2.25;;;7.80;99.90;;;;;;4927304;29;20034;-27
2021/05/05 09:26:38;;;;;;;13.77;2.70;;;8.00;99.90;;;;;;4941885;29;20355;-28
2021/05/05 09:29:03;;;;;;;10.77;2.72;;;8.20;99.90;;;;;;4927957;29;20024;-28
2021/05/05 09:31:38;;;;;;;8.52;2.08;;;8.40;99.90;;;;;;4942071;29;20031;-27
2021/05/05 09:34:07;;;;;;;8.00;2.75;;;8.60;99.40;;;;;;4946377;28;20514;-28
2021/05/05 09:36:33;;;;;;;7.47;1.95;;;8.60;99.00;;;;;;4946874;29;20042;-28
2021/05/05 09:39:02;;;;;;;6.43;1.67;;;8.60;98.90;;;;;;4945728;28;20031;-28
2021/05/05 09:41:36;;;;;;;6.60;2.10;;;8.60;98.10;;;;;;4946235;29;20035;-28
2021/05/05 09:44:05;;;;;;;7.70;1.80;;;8.50;98.60;;;;;;4946465;28;20039;-28
2021/05/05 09:46:57;;;;;;;9.60;2.30;;;8.40;98.20;;;;;;4946227;29;20039;-28
2021/05/05 09:49:27;;;;;;;8.18;2.38;;;8.50;98.90;;;;;;4946981;28;20173;-27
2021/05/05 09:52:09;;;;;;;8.88;3.05;;;8.60;98.50;;;;;;4945684;29;20546;-28
2021/05/05 09:54:37;;;;;;;13.27;2.30;;;8.80;97.10;;;;;;4945735;28;20049;-28
2021/05/05 09:57:13;;;;;;;10.75;2.13;;;9.00;97.40;;;;;;4946236;29;20049;-29
2021/05/05 09:59:57;;;;;;;7.70;1.52;;;9.10;96.80;;;;;;4945863;28;20031;-29
2021/05/05 10:02:25;;;;;;;7.25;1.80;;;9.10;96.40;;;;;;4950189;29;20066;-27
2021/05/05 10:05:02;;;;;;;9.48;2.25;;;9.10;95.80;;;;;;4949772;28;20745;-28
2021/05/05 10:07:47;;;;;;;7.93;1.58;;;9.10;95.60;;;;;;4949922;28;20089;-28
2021/05/05 10:10:13;;;;;;;8.98;1.77;;;9.20;95.60;;;;;;4950641;28;20121;-28
2021/05/05 10:12:39;;;;;;;6.88;1.75;;;9.10;95.40;;;;;;4950011;29;20449;-29
2021/05/05 10:15:05;;;;;;;5.85;1.60;;;9.10;95.70;;;;;;4950212;28;20051;-28
2021/05/05 10:17:35;;;;;;;7.45;1.60;;;9.00;96.20;;;;;;4950329;28;20086;-29
2021/05/05 10:20:02;;;;;;;7.22;1.90;;;9.00;97.30;;;;;;4939405;29;20093;-29
2021/05/05 10:22:29;;;;;;;9.35;1.77;;;9.00;96.00;;;;;;4947861;29;20411;-29
2021/05/05 10:24:55;;;;;;;6.25;1.65;;;9.20;96.00;;;;;;4949091;28;20052;-29
2021/05/05 10:27:22;;;;;;;5.47;1.67;;;9.40;96.20;;;;;;4948563;28;20129;-28
2021/05/05 10:29:50;;;;;;;7.05;1.73;;;9.40;96.30;;;;;;4948763;28;20038;-28
2021/05/05 10:32:19;;;;;;;11.23;2.35;;;9.30;96.40;;;;;;4948548;28;20042;-28
2021/05/05 10:34:49;;;;;;;9.13;2.00;;;9.10;96.40;;;;;;4948102;28;20115;-27
2021/05/05 10:37:15;;;;;;;7.30;2.03;;;8.80;97.20;;;;;;4949935;28;20136;-29
2021/05/05 10:39:41;;;;;;;9.15;2.40;;;8.70;97.30;;;;;;4949126;29;20104;-29
2021/05/05 10:42:18;;;;;;;7.93;2.95;;;8.70;97.00;;;;;;4949195;29;20113;-27
2021/05/05 10:44:54;;;;;;;7.90;2.10;;;8.70;97.80;;;;;;4946494;29;20030;-28
2021/05/05 10:47:35;;;;;;;10.90;2.15;;;8.90;96.90;;;;;;4949411;29;20039;-27
2021/05/05 10:50:07;;;;;;;7.70;1.88;;;9.00;96.60;;;;;;4946900;29;20026;-28
2021/05/05 10:52:42;;;;;;;7.78;1.80;;;9.20;96.50;;;;;;4950217;29;20358;-27
2021/05/05 10:55:29;;;;;;;15.63;2.92;;;9.40;96.00;;;;;;4945849;29;20042;-28
2021/05/05 10:58:09;;;;;;;6.38;2.20;;;9.50;95.00;;;;;;4948653;28;20066;-28
2021/05/05 11:00:59;;;;;;;10.52;2.40;;;9.50;95.10;;;;;;4948882;28;20123;-29
2021/05/05 11:03:45;;;;;;;8.88;1.90;;;9.70;95.10;;;;;;4948299;29;20046;-26
2021/05/05 11:06:32;;;;;;;11.18;2.58;;;9.80;94.80;;;;;;4948044;28;20035;-30
2021/05/05 11:09:13;;;;;;;12.77;2.75;;;9.80;94.40;;;;;;4946970;29;20795;-27
2021/05/05 11:11:50;;;;;;;12.80;2.05;;;9.90;94.20;;;;;;4948812;28;20086;-28
2021/05/05 11:14:28;;;;;;;11.50;2.40;;;9.90;93.80;;;;;;4948812;28;20127;-27
2021/05/05 11:19:38;;;;;;;10.85;2.35;;;10.10;93.20;;;;;;4948027;28;20035;-28
2021/05/05 11:22:18;;;;;;;10.07;2.13;;;10.20;92.90;;;;;;4946203;29;20066;-27
2021/05/05 11:24:46;;;;;;;8.10;1.90;;;10.40;92.80;;;;;;4945726;29;20355;-27
2021/05/05 11:27:15;;;;;;;9.73;2.10;;;10.50;92.80;;;;;;4948887;28;20282;-27
2021/05/05 11:29:53;;;;;;;11.38;2.42;;;10.70;93.10;;;;;;4948754;29;20075;-28
2021/05/05 11:32:18;;;;;;;10.95;2.22;;;10.80;92.60;;;;;;4948789;28;20023;-30
2021/05/05 11:34:46;;;;;;;13.82;2.60;;;10.80;92.10;;;;;;4948734;29;20027;-27
2021/05/05 11:37:19;;;;;;;13.02;2.40;;;10.80;91.20;;;;;;4948286;28;20039;-27
2021/05/05 11:39:47;;;;;;;10.00;2.50;;;11.00;91.90;;;;;;4948345;29;20032;-27
2021/05/05 11:42:20;;;;;;;16.25;2.92;;;11.20;92.00;;;;;;4948361;28;20082;-28
2021/05/05 11:44:45;;;;;;;7.60;2.00;;;11.40;90.60;;;;;;4947883;29;20026;-27
2021/05/05 11:47:14;;;;;;;12.73;2.35;;;11.60;90.00;;;;;;4948681;29;20118;-30
2021/05/05 11:49:43;;;;;;;6.97;2.20;;;11.70;86.10;;;;;;4946957;29;20465;-29
2021/05/05 11:52:19;;;;;;;10.88;1.92;;;11.70;87.20;;;;;;4948015;28;20514;-28
2021/05/05 11:54:47;;;;;;;4.78;1.83;;;11.70;83.10;;;;;;4947902;29;20019;-37
2021/05/05 11:57:13;;;;;;;6.30;2.00;;;11.70;83.40;;;;;;4948350;29;20066;-28
2021/05/05 11:59:39;;;;;;;8.77;2.20;;;11.80;82.80;;;;;;4948541;29;20054;-28
2021/05/05 12:02:05;;;;;;;11.18;2.55;;;11.70;82.10;;;;;;4948293;29;20485;-30
2021/05/05 12:04:42;;;;;;;7.13;2.17;;;11.60;82.80;;;;;;4948652;28;20027;-29
2021/05/05 12:07:10;;;;;;;8.73;2.03;;;11.60;84.80;;;;;;4947352;29;20019;-28
2021/05/05 12:09:42;;;;;;;10.77;2.53;;;11.30;86.20;;;;;;4948538;28;20050;-28
2021/05/05 12:12:14;;;;;;;8.40;2.50;;;11.00;88.80;;;;;;4947634;28;20090;-28
2021/05/05 12:14:42;;;;;;;10.80;3.10;;;10.70;90.10;;;;;;4948029;28;20077;-26
2021/05/05 12:20:06;;;;;;;14.20;3.47;;;10.30;91.80;;;;;;4937457;29;20046;-28
2021/05/05 12:22:33;;;;;;;10.88;2.65;;;10.30;91.40;;;;;;4947759;28;20126;-27
2021/05/05 12:25:07;;;;;;;13.48;3.75;;;10.30;91.70;;;;;;4947348;28;20089;-28
2021/05/05 12:27:32;;;;;;;11.68;2.90;;;10.40;92.00;;;;;;4947243;28;20039;-28
2021/05/05 12:30:08;;;;;;;9.15;2.30;;;10.70;91.80;;;;;;4937632;29;20027;-28
2021/05/05 12:32:42;;;;;;;10.05;2.67;;;10.90;91.60;;;;;;4944992;29;20529;-27
2021/05/05 12:35:10;;;;;;;5.95;2.22;;;11.00;87.20;;;;;;4946680;29;20102;-28
2021/05/05 12:37:37;;;;;;;10.38;2.50;;;11.00;87.10;;;;;;4947260;29;20053;-27
2021/05/05 12:40:04;;;;;;;7.95;1.85;;;11.00;85.40;;;;;;4947574;28;20023;-27
2021/05/05 12:42:36;;;;;;;11.18;2.25;;;11.00;85.70;;;;;;4946766;29;20054;-27
2021/05/05 12:45:21;;;;;;;8.05;2.55;;;11.10;86.40;;;;;;4944860;29;20031;-28
2021/05/05 12:47:48;;;;;;;9.63;2.30;;;11.00;87.70;;;;;;4946290;29;20360;-27
2021/05/05 12:50:15;;;;;;;9.23;2.15;;;10.90;89.50;;;;;;4947222;28;20502;-27
2021/05/05 12:52:42;;;;;;;10.50;2.08;;;10.70;90.00;;;;;;4947527;28;20141;-27
2021/05/05 12:55:28;;;;;;;9.93;2.17;;;10.50;90.80;;;;;;4947041;29;20443;-27
2021/05/05 12:58:09;;;;;;;11.65;2.65;;;10.50;91.40;;;;;;4946835;28;20468;-27
2021/05/05 13:00:36;;;;;;;10.27;2.83;;;10.40;89.30;;;;;;4947780;29;20171;-26
2021/05/05 13:03:14;;;;;;;11.02;2.30;;;10.30;87.40;;;;;;4947246;28;20019;-27
2021/05/05 13:06:04;;;;;;;14.93;3.95;;;10.10;86.00;;;;;;4947272;29;20838;-28
2021/05/05 13:08:45;;;;;;;8.02;2.75;;;10.00;87.80;;;;;;4946843;28;20031;-27